MST,Max TemperatureF,Mean TemperatureF,Min TemperatureF,Max Dew PointF,MeanDew PointF,Min DewpointF,Max Humidity, Mean Humidity, Min Humidity, Max Sea Level PressureIn, Mean Sea Level PressureIn, Min Sea Level PressureIn, Max VisibilityMiles, Mean VisibilityMiles, Min VisibilityMiles, Max Wind SpeedMPH, Mean Wind SpeedMPH, Max Gust SpeedMPH,PrecipitationIn, CloudCover, Events, WindDirDegrees
2013-2-1,72,53,34,33,29,24,76,47,17,30.20,30.15,30.09,10,10,10,12,5,15,0.00,0,,152
2013-2-2,75,57,39,37,29,18,70,41,11,30.24,30.15,30.06,10,10,10,15,6,20,0.00,0,,147
2013-2-3,71,62,52,39,34,28,54,38,22,30.09,30.00,29.92,10,10,10,10,4,14,0.00,3,,127
2013-2-4,71,59,46,39,37,34,71,50,28,30.02,29.96,29.90,10,10,10,14,5,16,0.00,1,,175
2013-2-5,73,59,44,42,39,35,76,51,25,30.01,29.94,29.87,10,10,10,15,7,20,0.00,0,,174
2013-2-6,71,58,45,40,37,33,71,48,25,30.00,29.93,29.87,10,10,10,17,7,22,0.00,0,,189
2013-2-7,70,57,44,38,32,24,70,45,19,30.09,30.00,29.93,10,10,10,12,6,17,0.00,0,,174
2013-2-8,68,56,44,32,24,12,58,35,11,29.93,29.83,29.75,10,10,10,22,9,27,0.00,0,,200
2013-2-9,53,45,36,36,29,20,100,65,29,30.03,29.91,29.76,10,10,10,21,9,28,0.04,5,Rain,246
2013-2-10,57,45,32,28,24,20,81,53,24,30.04,29.99,29.92,10,10,10,13,6,18,0.00,0,,158
2013-2-11,54,42,29,36,32,22,100,68,36,30.17,30.07,29.96,10,9,2,18,7,23,0.26,6,Rain,239
2013-2-12,52,42,32,35,31,26,100,69,38,30.28,30.20,30.16,10,10,7,12,5,14,0.00,2,,346
2013-2-13,61,46,31,31,25,14,92,54,16,30.21,30.13,30.06,10,10,10,12,4,14,0.00,0,,214
2013-2-14,66,50,34,31,27,19,82,49,16,30.14,30.09,30.01,10,10,10,13,6,16,0.00,0,,192
2013-2-15,71,55,39,33,25,16,79,47,14,30.21,30.15,30.10,10,10,10,18,4,23,0.00,0,,71
2013-2-16,75,60,45,22,12,6,37,22,7,30.22,30.10,29.96,10,10,10,29,13,36,0.00,0,,113
2013-2-17,74,59,43,21,13,3,31,19,6,29.96,29.89,29.80,10,10,10,18,8,25,0.00,0,,202
2013-2-18,71,54,37,22,17,10,48,30,11,30.04,29.95,29.89,10,10,10,14,5,17,0.00,0,,141
2013-2-19,70,57,44,31,18,8,40,25,9,29.90,29.78,29.67,10,10,10,28,11,36,0.00,0,,186
2013-2-20,52,43,33,37,34,32,100,72,44,29.97,29.81,29.68,10,7,0,23,11,38,0.42,7,Fog-Rain-Snow,211
2013-2-21,52,43,33,36,33,29,100,71,41,30.05,29.99,29.92,10,10,7,14,5,20,0.00,5,,129
2013-2-22,55,47,38,38,33,26,92,65,38,30.15,30.07,29.96,10,10,9,14,5,17,0.00,2,,307
2013-2-23,64,49,34,32,27,20,89,54,19,30.13,29.97,29.83,10,10,10,12,4,17,0.00,0,,159
2013-2-24,51,43,35,32,18,3,76,45,14,30.09,29.92,29.77,10,10,10,29,11,38,0.00,1,,281
2013-2-25,58,44,30,25,17,12,58,38,17,30.20,30.11,30.03,10,10,10,12,4,16,0.00,0,,222
2013-2-26,63,48,33,25,17,7,64,38,11,30.06,30.00,29.95,10,10,10,15,8,19,0.00,0,,207
2013-2-27,63,47,31,22,12,1,63,36,8,30.22,30.13,30.06,10,10,10,16,6,20,0.00,0,,317
2013-2-28,66,49,31,19,13,7,58,34,10,30.29,30.23,30.18,10,10,10,17,6,21,0.00,0,,223